Time;durP1;ratioP1;P1;durP2;ratioP2;P2;SDS_P1;SDS_P2;PMS_P1;PMS_P2;Temp;Humidity;BMP_temperature;BMP_pressure;BME280_temperature;BME280_humidity;BME280_pressure;Samples;Min_cycle;Max_cycle;Signal;HPM_P1;HPM_P2
2021/07/26 00:02:08;;;;;;;;;;;;;;;-142.75;74.32;76151.03;5073897;28;19916;-78
2021/07/26 00:04:36;;;;;;;;;;;;;;;-142.75;74.46;76160.88;5075428;28;19923;-79
2021/07/26 00:07:02;;;;;;;;;;;;;;;-142.75;74.58;76158.91;5087122;28;19947;-80
2021/07/26 00:09:27;;;;;;;;;;;;;;;-142.75;74.57;76162.84;5084973;28;19988;-78
2021/07/26 00:11:52;;;;;;;;;;;;;;;-142.75;74.71;76182.53;5080817;28;19955;-78
2021/07/26 00:14:17;;;;;;;;;;;;;;;-142.75;75.80;76174.66;5078627;28;19923;-79
2021/07/26 00:16:43;;;;;;;;;;;;;;;-142.75;76.18;76184.50;5090370;28;19966;-78
2021/07/26 00:19:08;;;;;;;;;;;;;;;-142.75;75.73;76190.41;5081783;28;19916;-79
2021/07/26 00:21:33;;;;;;;;;;;;;;;-142.75;75.53;76188.44;5087774;28;19970;-78
2021/07/26 00:23:58;;;;;;;;;;;;;;;-142.75;75.45;76190.41;5081350;28;19955;-80
2021/07/26 00:26:25;;;;;;;;;;;;;;;-142.75;75.60;76184.50;5074739;28;19942;-76
2021/07/26 00:28:50;;;;;;;;;;;;;;;-142.75;75.27;76190.41;5074613;28;19916;-78
2021/07/26 00:31:15;;;;;;;;;;;;;;;-142.75;75.18;76194.34;5077978;28;19924;-79
2021/07/26 00:34:10;;;;;;;;;;;;;;;-142.75;75.01;76190.41;5077127;28;20393;-80
2021/07/26 00:36:39;;;;;;;;;;;;;;;-142.75;75.06;76190.41;5095603;28;19916;-77
2021/07/26 00:39:05;;;;;;;;;;;;;;;-142.75;74.92;76188.44;5097682;28;19923;-78
2021/07/26 00:41:31;;;;;;;;;;;;;;;-142.75;74.44;76202.19;5098560;28;19923;-78
2021/07/26 00:43:56;;;;;;;;;;;;;;;-142.75;74.57;76208.09;5097652;28;19916;-78
2021/07/26 00:46:21;;;;;;;;;;;;;;;-142.75;74.66;76210.06;5078085;28;19956;-77
2021/07/26 00:48:47;;;;;;;;;;;;;;;-142.75;75.00;76204.16;5081739;28;19969;-78
2021/07/26 00:51:12;;;;;;;;;;;;;;;-142.75;75.57;76196.31;5098173;28;19916;-79
2021/07/26 00:53:38;;;;;;;;;;;;;;;-142.75;75.76;76192.38;5081569;28;19962;-78
2021/07/26 00:56:03;;;;;;;;;;;;;;;-142.75;75.79;76196.31;5077405;28;19923;-78
2021/07/26 00:58:29;;;;;;;;;;;;;;;-142.75;76.55;76198.28;5078196;28;19923;-78
2021/07/26 01:00:55;;;;;;;;;;;;;;;-142.75;77.71;76200.25;5077244;28;19916;-78
2021/07/26 01:03:21;;;;;;;;;;;;;;;-142.75;77.68;76198.28;5076290;28;20011;-78
2021/07/26 01:05:46;;;;;;;;;;;;;;;-142.75;77.22;76196.31;5088275;28;20018;-77
2021/07/26 01:08:11;;;;;;;;;;;;;;;-142.75;77.04;76186.47;5096342;28;20297;-76
2021/07/26 01:10:36;;;;;;;;;;;;;;;-142.75;76.59;76198.28;5096288;28;19923;-77
2021/07/26 01:13:01;;;;;;;;;;;;;;;-142.75;76.65;76208.09;5097679;28;20347;-78
2021/07/26 01:15:27;;;;;;;;;;;;;;;-142.75;76.50;76208.09;5083982;28;19916;-78
2021/07/26 01:18:13;;;;;;;;;;;;;;;-142.75;76.21;76219.91;5077396;28;19916;-79
2021/07/26 01:20:38;;;;;;;;;;;;;;;-142.75;77.00;76206.13;5076101;28;19982;-79
2021/07/26 01:23:03;;;;;;;;;;;;;;;-142.75;77.09;76204.16;5077099;28;20250;-78
2021/07/26 01:25:28;;;;;;;;;;;;;;;-142.75;77.17;76210.06;5076117;28;19939;-79
2021/07/26 01:27:53;;;;;;;;;;;;;;;-142.75;76.98;76215.97;5077251;28;19925;-78
2021/07/26 01:30:19;;;;;;;;;;;;;;;-142.75;77.13;76208.09;5075133;28;20029;-79
2021/07/26 01:32:44;;;;;;;;;;;;;;;-142.75;77.18;76206.13;5075360;28;19917;-78
2021/07/26 01:35:09;;;;;;;;;;;;;;;-142.75;76.88;76215.97;5076818;28;19916;-78
2021/07/26 01:37:34;;;;;;;;;;;;;;;-142.75;76.91;76210.06;5081469;28;19916;-77
2021/07/26 01:40:00;;;;;;;;;;;;;;;-142.75;77.04;76208.09;5093351;28;19969;-78
2021/07/26 01:42:25;;;;;;;;;;;;;;;-142.75;77.07;76200.25;5077370;28;20338;-77
2021/07/26 01:44:55;;;;;;;;;;;;;;;-142.75;77.09;76219.91;5072847;28;21572;-78
2021/07/26 01:47:20;;;;;;;;;;;;;;;-142.75;77.05;76214.00;5077887;28;19931;-77
2021/07/26 01:49:46;;;;;;;;;;;;;;;-142.75;77.71;76210.06;5092116;28;20301;-76
2021/07/26 01:52:12;;;;;;;;;;;;;;;-142.75;77.57;76208.09;5092026;28;19923;-78
2021/07/26 01:54:37;;;;;;;;;;;;;;;-142.75;77.64;76204.16;5092370;28;19985;-78
2021/07/26 01:57:02;;;;;;;;;;;;;;;-142.75;77.86;76186.47;5092543;28;19965;-77
2021/07/26 01:59:28;;;;;;;;;;;;;;;-142.75;77.60;76186.47;5083505;28;20373;-78
2021/07/26 02:01:53;;;;;;;;;;;;;;;-142.75;77.51;76192.38;5084188;28;19922;-78
2021/07/26 02:04:19;;;;;;;;;;;;;;;-142.75;77.50;76184.50;5083148;28;19923;-77
2021/07/26 02:06:44;;;;;;;;;;;;;;;-142.75;77.53;76188.44;5092700;28;19920;-77
2021/07/26 02:09:09;;;;;;;;;;;;;;;-142.75;77.62;76186.47;5090756;28;20452;-77
2021/07/26 02:11:34;;;;;;;;;;;;;;;-142.75;77.53;76182.53;5086435;28;20279;-76
2021/07/26 02:14:00;;;;;;;;;;;;;;;-142.75;77.89;76172.69;5081348;28;19923;-77
2021/07/26 02:16:25;;;;;;;;;;;;;;;-142.75;78.81;76160.88;5092286;28;19916;-77
2021/07/26 02:18:50;;;;;;;;;;;;;;;-142.75;79.27;76147.09;5088745;28;19921;-77
2021/07/26 02:21:15;;;;;;;;;;;;;;;-142.75;79.70;76135.28;5071625;28;19923;-77
2021/07/26 02:23:40;;;;;;;;;;;;;;;-142.75;79.96;76125.44;5071219;28;19964;-80
2021/07/26 02:26:06;;;;;;;;;;;;;;;-142.75;80.38;76121.50;5082801;28;20531;-78
2021/07/26 02:28:31;;;;;;;;;;;;;;;-142.75;80.74;76117.56;5090075;28;19916;-79
2021/07/26 02:30:56;;;;;;;;;;;;;;;-142.75;81.04;76113.63;5089908;28;20357;-78
2021/07/26 02:33:21;;;;;;;;;;;;;;;-142.75;81.45;76105.75;5069837;28;19916;-79
2021/07/26 02:35:47;;;;;;;;;;;;;;;-142.75;81.27;76117.56;5077665;28;19931;-77
2021/07/26 02:38:13;;;;;;;;;;;;;;;-142.75;81.19;76111.66;5070643;28;19950;-78
2021/07/26 02:40:38;;;;;;;;;;;;;;;-142.75;81.45;76107.72;5088517;28;19929;-76
2021/07/26 02:43:03;;;;;;;;;;;;;;;-142.75;81.42;76109.69;5086840;28;20460;-77
2021/07/26 02:45:28;;;;;;;;;;;;;;;-142.75;81.19;76113.63;5089877;28;19923;-79
2021/07/26 02:47:53;;;;;;;;;;;;;;;-142.75;81.23;76111.66;5071422;28;20283;-79
2021/07/26 02:50:19;;;;;;;;;;;;;;;-142.75;81.21;76111.66;5076198;28;19916;-76
2021/07/26 02:52:45;;;;;;;;;;;;;;;-142.75;81.46;76109.69;5073955;28;19950;-77
2021/07/26 02:55:10;;;;;;;;;;;;;;;-142.75;81.58;76111.66;5084882;28;20323;-77
2021/07/26 02:57:36;;;;;;;;;;;;;;;-142.75;81.72;76113.63;5081094;28;19924;-76
2021/07/26 03:00:01;;;;;;;;;;;;;;;-142.75;81.55;76105.75;5068532;28;20019;-78
2021/07/26 03:02:27;;;;;;;;;;;;;;;-142.75;81.51;76111.66;5072226;28;20424;-77
2021/07/26 03:04:52;;;;;;;;;;;;;;;-142.75;81.31;76121.50;5085208;28;19916;-78
2021/07/26 03:07:17;;;;;;;;;;;;;;;-142.75;81.37;76117.56;5091630;28;19920;-78
2021/07/26 03:09:42;;;;;;;;;;;;;;;-142.75;81.18;76119.53;5071144;28;20247;-78
2021/07/26 03:12:08;;;;;;;;;;;;;;;-142.75;81.08;76113.63;5083857;28;19916;-77
2021/07/26 03:14:33;;;;;;;;;;;;;;;-142.75;80.76;76133.31;5090863;28;19920;-78
2021/07/26 03:17:01;;;;;;;;;;;;;;;-142.75;80.84;76141.19;5090526;28;20381;-78
2021/07/26 03:19:26;;;;;;;;;;;;;;;-142.75;80.81;76143.16;5089136;28;19931;-77
2021/07/26 03:21:58;;;;;;;;;;;;;;;-142.75;80.63;76154.97;5068293;28;19917;-76
2021/07/26 03:24:23;;;;;;;;;;;;;;;-142.75;80.62;76156.94;5071430;28;20011;-78
2021/07/26 03:26:48;;;;;;;;;;;;;;;-142.75;80.78;76156.94;5082203;22;20002;-79
2021/07/26 03:29:13;;;;;;;;;;;;;;;-142.75;80.90;76149.06;5066213;28;19924;-79
2021/07/26 03:31:40;;;;;;;;;;;;;;;-142.75;80.58;76158.91;5058462;28;19971;-78
2021/07/26 03:34:05;;;;;;;;;;;;;;;-142.75;80.32;76166.78;5053486;28;20289;-79
2021/07/26 03:36:30;;;;;;;;;;;;;;;-142.75;80.34;76166.78;5063361;28;19917;-78
2021/07/26 03:38:55;;;;;;;;;;;;;;;-142.75;80.45;76170.72;5053996;28;19916;-79
2021/07/26 03:41:21;;;;;;;;;;;;;;;-142.75;80.52;76166.78;5039178;28;19917;-79
2021/07/26 03:43:46;;;;;;;;;;;;;;;-142.75;80.66;76160.88;5059289;28;19917;-79
2021/07/26 03:46:11;;;;;;;;;;;;;;;-142.75;80.47;76168.75;5054730;28;20447;-79
2021/07/26 03:48:36;;;;;;;;;;;;;;;-142.75;80.56;76151.03;5061158;28;20366;-79
2021/07/26 03:51:02;;;;;;;;;;;;;;;-142.75;80.88;76137.25;5065503;28;19920;-79
2021/07/26 03:53:27;;;;;;;;;;;;;;;-142.75;80.74;76139.22;5056589;28;19996;-79
2021/07/26 03:55:52;;;;;;;;;;;;;;;-142.75;80.27;76141.19;5055358;28;20302;-78
2021/07/26 03:58:17;;;;;;;;;;;;;;;-142.75;80.30;76135.28;5064022;28;19970;-78
2021/07/26 04:00:42;;;;;;;;;;;;;;;-142.75;79.96;76147.09;5072705;28;19939;-79
2021/07/26 04:08:14;;;;;;;;;;;;;;;-142.75;80.28;76141.19;5053219;28;19923;-79
2021/07/26 04:10:42;;;;;;;;;;;;;;;-142.75;80.60;76137.25;5057138;28;19927;-76
2021/07/26 04:13:08;;;;;;;;;;;;;;;-142.75;80.96;76137.25;5074639;28;19916;-78
2021/07/26 04:15:33;;;;;;;;;;;;;;;-142.75;81.02;76139.22;5055702;28;19917;-80
2021/07/26 04:17:58;;;;;;;;;;;;;;;-142.75;81.02;76135.28;5072268;28;19917;-79
2021/07/26 04:20:23;;;;;;;;;;;;;;;-142.75;81.28;76133.31;5070133;28;19908;-78
2021/07/26 04:22:48;;;;;;;;;;;;;;;-142.75;81.08;76129.38;5045161;28;19970;-80
2021/07/26 04:25:14;;;;;;;;;;;;;;;-142.75;80.78;76131.34;5059551;28;19925;-78
2021/07/26 04:27:39;;;;;;;;;;;;;;;-142.75;81.39;76129.38;5059897;28;19920;-77
2021/07/26 04:30:05;;;;;;;;;;;;;;;-142.75;81.42;76123.47;5043077;28;19928;-78
2021/07/26 04:32:30;;;;;;;;;;;;;;;-142.75;81.26;76127.41;5061431;28;19923;-79
2021/07/26 04:34:59;;;;;;;;;;;;;;;-142.75;81.48;76127.41;5059546;28;20007;-78
2021/07/26 04:37:25;;;;;;;;;;;;;;;-142.75;81.75;76119.53;5052204;28;19920;-78
2021/07/26 04:39:50;;;;;;;;;;;;;;;-142.75;81.51;76125.44;5057864;28;19925;-78
2021/07/26 04:42:15;;;;;;;;;;;;;;;-142.75;81.99;76117.56;5051225;28;19917;-79
2021/07/26 04:44:40;;;;;;;;;;;;;;;-142.75;81.56;76119.53;5061865;28;19924;-79
2021/07/26 04:47:06;;;;;;;;;;;;;;;-142.75;81.99;76119.53;5039223;28;19997;-78
2021/07/26 04:49:31;;;;;;;;;;;;;;;-142.75;81.58;76111.66;5052453;28;20305;-79
2021/07/26 04:51:56;;;;;;;;;;;;;;;-142.75;81.48;76103.78;5040159;28;19916;-80
2021/07/26 04:54:21;;;;;;;;;;;;;;;-142.75;80.90;76097.88;5072240;28;19924;-79
2021/07/26 04:56:46;;;;;;;;;;;;;;;-142.75;80.62;76101.81;5060466;28;19916;-79
2021/07/26 04:59:12;;;;;;;;;;;;;;;-142.75;81.19;76101.81;5063229;28;20366;-79
2021/07/26 05:01:37;;;;;;;;;;;;;;;-142.75;81.02;76097.88;5045738;28;20300;-79
2021/07/26 05:04:02;;;;;;;;;;;;;;;-142.75;81.23;76105.75;5056895;28;19916;-79
2021/07/26 05:06:27;;;;;;;;;;;;;;;-142.75;80.87;76097.88;5058404;28;19955;-78
2021/07/26 05:08:52;;;;;;;;;;;;;;;-142.75;81.20;76103.78;5068876;28;19924;-78
2021/07/26 05:11:21;;;;;;;;;;;;;;;-142.75;81.28;76103.78;5072557;28;20016;-78
2021/07/26 05:13:46;;;;;;;;;;;;;;;-142.75;81.12;76093.94;5043403;28;19928;-80
2021/07/26 05:16:11;;;;;;;;;;;;;;;-142.75;80.96;76080.16;5062214;28;19916;-79
2021/07/26 05:18:37;;;;;;;;;;;;;;;-142.75;80.82;76090.00;5073519;28;19923;-80
2021/07/26 05:21:02;;;;;;;;;;;;;;;-142.75;80.59;76080.16;5051732;28;19916;-79
2021/07/26 05:23:27;;;;;;;;;;;;;;;-142.75;80.49;76078.19;5043673;28;19939;-79
2021/07/26 05:25:52;;;;;;;;;;;;;;;-142.75;80.59;76074.25;5055445;28;19963;-80
2021/07/26 05:28:17;;;;;;;;;;;;;;;-142.75;81.28;76072.31;5070507;28;19916;-79
2021/07/26 05:30:42;;;;;;;;;;;;;;;-142.75;81.48;76062.47;5073490;28;20395;-79
2021/07/26 05:33:08;;;;;;;;;;;;;;;-142.75;80.93;76074.25;5054568;28;19963;-79
2021/07/26 05:35:33;;;;;;;;;;;;;;;-142.75;81.01;76068.38;5068115;28;19929;-78
2021/07/26 05:38:01;;;;;;;;;;;;;;;-142.75;80.93;76056.56;5055847;28;19924;-78
2021/07/26 05:40:26;;;;;;;;;;;;;;;-142.75;80.50;76038.84;5056795;28;20446;-78
2021/07/26 05:42:51;;;;;;;;;;;;;;;-142.75;80.21;76023.09;5050814;28;19916;-80
2021/07/26 05:45:16;;;;;;;;;;;;;;;-142.75;79.28;75991.59;5061592;28;20008;-80
2021/07/26 05:47:42;;;;;;;;;;;;;;;-142.75;79.07;75981.75;5054702;28;22053;-78
2021/07/26 05:50:07;;;;;;;;;;;;;;;-142.75;78.59;75971.91;5077323;28;19925;-79
2021/07/26 05:52:32;;;;;;;;;;;;;;;-142.75;77.67;75938.47;5074965;28;19970;-79
2021/07/26 05:54:58;;;;;;;;;;;;;;;-142.75;77.16;75912.88;5069307;28;19916;-80
2021/07/26 05:57:26;;;;;;;;;;;;;;;-142.75;76.91;75877.44;5040758;28;19944;-79
2021/07/26 05:59:52;;;;;;;;;;;;;;;-142.75;75.62;75891.22;5065081;28;20283;-79
2021/07/26 06:02:17;;;;;;;;;;;;;;;-142.75;76.43;75903.03;5048536;28;19917;-80
2021/07/26 06:04:42;;;;;;;;;;;;;;;-142.75;76.46;75887.28;5046918;28;20625;-79
2021/07/26 06:07:07;;;;;;;;;;;;;;;-142.75;75.06;75857.78;5061731;28;19929;-80
2021/07/26 06:09:33;;;;;;;;;;;;;;;-142.75;74.02;75845.97;5050686;28;20374;-80
2021/07/26 06:11:58;;;;;;;;;;;;;;;-142.75;73.31;75855.81;5051653;28;19923;-79
2021/07/26 06:14:24;;;;;;;;;;;;;;;-142.75;73.53;75853.84;5051496;28;19920;-79
2021/07/26 06:16:51;;;;;;;;;;;;;;;-142.75;73.85;75853.84;5047937;28;20298;-80
2021/07/26 06:19:18;;;;;;;;;;;;;;;-142.75;73.69;75847.94;5044678;28;20302;-79
2021/07/26 06:21:45;;;;;;;;;;;;;;;-142.75;74.17;75845.97;5040735;28;20367;-80
2021/07/26 06:24:11;;;;;;;;;;;;;;;-142.75;74.23;75826.28;5050086;28;19916;-79
2021/07/26 06:26:36;;;;;;;;;;;;;;;-142.75;73.13;75814.47;5042260;28;19928;-77
2021/07/26 06:29:02;;;;;;;;;;;;;;;-142.75;72.33;75822.34;5055021;28;19916;-79
2021/07/26 06:31:27;;;;;;;;;;;;;;;-142.75;72.35;75800.69;5059641;28;19927;-79
2021/07/26 06:33:52;;;;;;;;;;;;;;;-142.75;72.76;75798.72;5074305;28;19917;-79
2021/07/26 06:36:17;;;;;;;;;;;;;;;-142.75;73.08;75782.97;5066857;28;19916;-78
2021/07/26 06:38:43;;;;;;;;;;;;;;;-142.75;72.24;75775.09;5074941;28;20002;-81
2021/07/26 06:41:08;;;;;;;;;;;;;;;-142.75;72.19;75741.66;5070210;28;19917;-80
2021/07/26 06:43:33;;;;;;;;;;;;;;;-142.75;71.93;75660.97;5036771;28;19924;-85
2021/07/26 06:45:58;;;;;;;;;;;;;;;-142.75;70.46;75613.72;5052715;28;19921;-84
2021/07/26 06:48:24;;;;;;;;;;;;;;;-142.75;68.67;75637.34;5047200;28;19975;-84
2021/07/26 06:50:49;;;;;;;;;;;;;;;-142.75;68.66;75682.59;5043096;28;19924;-82
2021/07/26 06:53:15;;;;;;;;;;;;;;;-142.75;68.26;75688.50;5049727;28;19921;-83
2021/07/26 06:55:41;;;;;;;;;;;;;;;-142.75;68.33;75700.31;5054928;28;19916;-83
2021/07/26 06:58:06;;;;;;;;;;;;;;;-142.75;69.48;75712.13;5055666;28;19916;-82
2021/07/26 07:00:32;;;;;;;;;;;;;;;-142.75;69.98;75725.91;5049200;28;20504;-83
2021/07/26 07:02:57;;;;;;;;;;;;;;;-142.75;70.60;75765.25;5046101;28;19920;-84
2021/07/26 07:05:22;;;;;;;;;;;;;;;-142.75;70.99;75765.25;5048795;28;20133;-83
2021/07/26 07:07:48;;;;;;;;;;;;;;;-142.75;70.77;75779.03;5044127;28;19992;-83
2021/07/26 07:10:13;;;;;;;;;;;;;;;-142.75;71.50;75796.75;5064175;28;20366;-82
2021/07/26 07:12:38;;;;;;;;;;;;;;;-142.75;71.46;75804.63;5037500;28;20006;-82
2021/07/26 07:15:04;;;;;;;;;;;;;;;-142.75;70.67;75830.22;5069786;28;20300;-83
2021/07/26 07:17:29;;;;;;;;;;;;;;;-142.75;71.25;75830.22;5042980;28;19916;-82
2021/07/26 07:19:55;;;;;;;;;;;;;;;-142.75;71.59;75849.91;5058244;28;19921;-83
2021/07/26 07:22:20;;;;;;;;;;;;;;;-142.75;71.99;75863.66;5042423;28;20366;-81
2021/07/26 07:24:45;;;;;;;;;;;;;;;-142.75;72.29;75865.63;5050070;28;19916;-82
2021/07/26 07:27:11;;;;;;;;;;;;;;;-142.75;72.63;75871.53;5053249;28;19932;-83
2021/07/26 07:29:36;;;;;;;;;;;;;;;-142.75;72.94;75849.91;5059047;28;20382;-83
2021/07/26 07:32:02;;;;;;;;;;;;;;;-142.75;73.14;75824.31;5046334;28;19931;-83
2021/07/26 07:34:27;;;;;;;;;;;;;;;-142.75;71.11;75802.66;5063747;28;20047;-82
2021/07/26 07:36:53;;;;;;;;;;;;;;;-142.75;70.33;75751.50;5053579;28;20031;-82
2021/07/26 07:39:18;;;;;;;;;;;;;;;-142.75;69.71;75733.78;5034588;28;20003;-81
2021/07/26 07:41:43;;;;;;;;;;;;;;;-142.75;69.66;75725.91;5049438;28;20322;-80
2021/07/26 07:44:08;;;;;;;;;;;;;;;-142.75;69.46;75725.91;5044787;28;19924;-80
2021/07/26 07:46:33;;;;;;;;;;;;;;;-142.75;69.34;75779.03;5051263;28;19924;-81
2021/07/26 07:48:59;;;;;;;;;;;;;;;-142.75;69.63;75775.09;5045800;28;19920;-81
2021/07/26 07:51:25;;;;;;;;;;;;;;;-142.75;69.27;75763.28;5062070;28;19920;-79
2021/07/26 07:53:53;;;;;;;;;;;;;;;-142.75;69.80;75753.47;5047631;28;19916;-80
2021/07/26 07:56:18;;;;;;;;;;;;;;;-142.75;69.39;75747.56;5059053;28;19917;-79
2021/07/26 07:58:44;;;;;;;;;;;;;;;-142.75;68.76;75757.41;5048934;28;19950;-78
2021/07/26 08:01:09;;;;;;;;;;;;;;;-142.75;69.39;75786.91;5069323;28;19923;-78
2021/07/26 08:03:34;;;;;;;;;;;;;;;-142.75;69.23;75779.03;5044353;28;20006;-80
2021/07/26 08:06:01;;;;;;;;;;;;;;;-142.75;69.93;75775.09;5046249;28;19920;-80
2021/07/26 08:08:26;;;;;;;;;;;;;;;-142.75;70.21;75775.09;5057050;28;20010;-79
2021/07/26 08:10:52;;;;;;;;;;;;;;;-142.75;70.04;75788.88;5076392;28;20646;-79
2021/07/26 08:13:17;;;;;;;;;;;;;;;-142.75;70.23;75782.97;5063653;28;19923;-79
2021/07/26 08:15:46;;;;;;;;;;;;;;;-142.75;70.67;75777.06;5063726;28;19943;-79
2021/07/26 08:18:11;;;;;;;;;;;;;;;-142.75;70.12;75800.69;5068297;28;19923;-79
2021/07/26 08:20:36;;;;;;;;;;;;;;;-142.75;70.67;75792.81;5074819;28;19999;-79
2021/07/26 08:23:01;;;;;;;;;;;;;;;-142.75;68.95;75767.22;5073887;28;20340;-79
2021/07/26 08:25:29;;;;;;;;;;;;;;;-142.75;69.59;75704.25;5068839;28;19929;-78
2021/07/26 08:27:55;;;;;;;;;;;;;;;-142.75;68.21;75633.41;5054852;28;19977;-82
2021/07/26 08:30:20;;;;;;;;;;;;;;;-142.75;66.45;75613.72;5069801;28;19928;-80
2021/07/26 08:32:45;;;;;;;;;;;;;;;-142.75;63.87;75613.72;5054064;28;19917;-79
2021/07/26 08:35:10;;;;;;;;;;;;;;;-142.75;64.70;75590.13;5049930;28;20436;-78
2021/07/26 08:37:36;;;;;;;;;;;;;;;-142.75;64.77;75601.91;5035204;28;20019;-82
2021/07/26 08:40:01;;;;;;;;;;;;;;;-142.75;65.74;75688.50;5052464;28;19917;-80
2021/07/26 08:42:27;;;;;;;;;;;;;;;-142.75;66.08;75680.63;5052189;28;20382;-80
2021/07/26 08:44:53;;;;;;;;;;;;;;;-142.75;65.46;75684.56;5053390;28;20009;-79
2021/07/26 08:47:19;;;;;;;;;;;;;;;-142.75;66.11;75688.50;5034736;28;20330;-78
2021/07/26 08:49:44;;;;;;;;;;;;;;;-142.75;66.27;75686.53;5054728;28;19925;-81
2021/07/26 08:52:10;;;;;;;;;;;;;;;-142.75;66.44;75712.13;5039979;28;19982;-81
2021/07/26 08:54:37;;;;;;;;;;;;;;;-142.75;65.98;75700.31;5039454;28;19955;-80
2021/07/26 08:57:02;;;;;;;;;;;;;;;-142.75;66.42;75674.72;5056913;28;19917;-80
2021/07/26 08:59:27;;;;;;;;;;;;;;;-142.75;64.92;75678.66;5056511;28;20302;-79
2021/07/26 09:01:53;;;;;;;;;;;;;;;-142.75;64.33;75637.34;5054649;28;19920;-80
2021/07/26 09:04:19;;;;;;;;;;;;;;;-142.75;63.79;75619.63;5076748;28;19920;-78
2021/07/26 09:06:44;;;;;;;;;;;;;;;-142.75;63.58;75605.84;5076581;28;19920;-80
2021/07/26 09:09:10;;;;;;;;;;;;;;;-142.75;63.38;75576.34;5057186;28;19924;-79
2021/07/26 09:11:45;;;;;;;;;;;;;;;-142.75;62.79;75586.19;5038541;28;20019;-80
2021/07/26 09:14:11;;;;;;;;;;;;;;;-142.75;64.54;75700.31;5075451;28;19917;-80
2021/07/26 09:16:36;;;;;;;;;;;;;;;-142.75;65.91;75721.97;5075205;28;19939;-79
2021/07/26 09:19:02;;;;;;;;;;;;;;;-142.75;66.45;75729.84;5057910;28;19916;-80
2021/07/26 09:21:47;;;;;;;;;;;;;;;-142.75;64.82;75660.97;5075940;28;19934;-80
2021/07/26 09:24:12;;;;;;;;;;;;;;;-142.75;64.99;75700.31;5076520;28;20364;-79
2021/07/26 09:26:37;;;;;;;;;;;;;;;-142.75;65.09;75731.81;5076446;28;19970;-81
2021/07/26 09:29:22;;;;;;;;;;;;;;;-142.75;64.88;75706.22;5076290;28;20015;-79
2021/07/26 09:31:57;;;;;;;;;;;;;;;-142.75;64.82;75727.88;5058145;28;19924;-78
2021/07/26 09:34:22;;;;;;;;;;;;;;;-142.75;64.54;75674.72;5076102;28;19920;-80
2021/07/26 09:36:48;;;;;;;;;;;;;;;-142.75;65.59;75688.50;5076074;28;19924;-80
2021/07/26 09:39:22;;;;;;;;;;;;;;;-142.75;62.99;75546.81;5076049;28;19921;-78
2021/07/26 09:41:48;;;;;;;;;;;;;;;-142.75;60.78;75448.41;5060303;28;20456;-80
2021/07/26 09:44:13;;;;;;;;;;;;;;;-142.75;60.15;75369.69;5055752;28;19916;-79
2021/07/26 09:46:39;;;;;;;;;;;;;;;-142.75;55.17;75302.78;5055445;28;19946;-78
2021/07/26 09:49:10;;;;;;;;;;;;;;;-142.75;55.79;75239.81;5057310;28;19951;-79
2021/07/26 09:51:35;;;;;;;;;;;;;;;-142.75;54.27;75338.22;5075086;28;19917;-79
2021/07/26 09:54:01;;;;;;;;;;;;;;;-142.75;54.81;75320.50;5075590;28;19924;-80
2021/07/26 09:56:28;;;;;;;;;;;;;;;-142.75;54.39;75271.31;5074630;28;20388;-81
2021/07/26 09:58:54;;;;;;;;;;;;;;;-142.75;53.43;75257.53;5073902;28;20422;-79
2021/07/26 10:01:19;;;;;;;;;;;;;;;-142.75;56.05;75188.66;5072798;28;19916;-80
2021/07/26 10:03:44;;;;;;;;;;;;;;;-142.75;51.21;75125.69;5056109;28;20007;-80
2021/07/26 10:06:10;;;;;;;;;;;;;;;-142.75;50.58;75113.88;5072158;28;20382;-79
2021/07/26 10:08:36;;;;;;;;;;;;;;;-142.75;53.09;75281.16;5073884;28;20396;-78
2021/07/26 10:11:02;;;;;;;;;;;;;;;-142.75;53.79;75326.41;5073191;28;19923;-80
2021/07/26 10:13:28;;;;;;;;;;;;;;;-142.75;55.01;75182.75;5074029;28;19920;-80
2021/07/26 10:15:53;;;;;;;;;;;;;;;-142.75;51.62;75220.16;5059730;28;19924;-79
2021/07/26 10:18:19;;;;;;;;;;;;;;;-142.75;51.82;75165.03;5054947;28;20364;-79
2021/07/26 10:20:57;;;;;;;;;;;;;;;-142.75;53.04;75125.69;5058621;28;19920;-80
2021/07/26 10:23:31;;;;;;;;;;;;;;;-142.75;51.24;75113.88;5066143;28;19920;-81
2021/07/26 10:25:58;;;;;;;;;;;;;;;-142.75;50.79;75039.13;5067340;28;20033;-80
2021/07/26 10:28:31;;;;;;;;;;;;;;;-142.75;49.35;75037.16;5049844;28;19962;-80
2021/07/26 10:30:57;;;;;;;;;;;;;;;-142.75;50.77;75210.31;5064527;28;20390;-79
2021/07/26 10:33:23;;;;;;;;;;;;;;;-142.75;52.22;75294.94;5051552;28;19916;-81
2021/07/26 10:35:49;;;;;;;;;;;;;;;-142.75;51.91;75129.63;5062387;28;19916;-79
2021/07/26 10:38:34;;;;;;;;;;;;;;;-142.75;47.77;75054.84;5064381;28;20286;-78
2021/07/26 10:40:59;;;;;;;;;;;;;;;-142.75;49.85;75037.16;5065175;28;19917;-79
2021/07/26 10:43:44;;;;;;;;;;;;;;;-142.75;47.55;74921.06;5046415;28;19947;-80
2021/07/26 10:46:10;;;;;;;;;;;;;;;-142.75;44.93;74791.19;5058747;28;19927;-78
2021/07/26 10:48:35;;;;;;;;;;;;;;;-142.75;44.42;74883.66;5050933;28;20003;-79
2021/07/26 10:51:01;;;;;;;;;;;;;;;-142.75;45.63;74944.66;5072262;28;19925;-80
2021/07/26 10:53:35;;;;;;;;;;;;;;;-142.75;44.96;74952.53;5072550;28;19920;-79
2021/07/26 10:56:03;;;;;;;;;;;;;;;-142.75;88.71;75501.56;5052865;28;19917;-80
2021/07/26 10:58:40;;;;;;;;;;;;;;;-142.75;95.53;75617.66;5056444;28;19996;-79
2021/07/26 11:01:29;;;;;;;;;;;;;;;-142.75;96.24;75529.09;5064469;28;19916;-78
2021/07/26 11:03:55;;;;;;;;;;;;;;;-142.75;95.43;75373.63;5060390;28;20168;-81
2021/07/26 11:06:38;;;;;;;;;;;;;;;-142.75;85.89;75263.44;5072269;28;20354;-81
2021/07/26 11:09:19;;;;;;;;;;;;;;;-142.75;64.41;75198.50;5053591;28;19936;-79
2021/07/26 11:11:48;;;;;;;;;;;;;;;-142.75;61.37;75200.47;5072776;28;20373;-79
2021/07/26 11:14:13;;;;;;;;;;;;;;;-142.75;58.75;75200.47;5071659;28;20297;-80
2021/07/26 11:16:51;;;;;;;;;;;;;;;-142.75;57.51;75196.53;5072830;28;19917;-80
2021/07/26 11:19:36;;;;;;;;;;;;;;;-142.75;56.81;75196.53;5069217;28;19917;-80
2021/07/26 11:22:03;;;;;;;;;;;;;;;-142.75;56.50;75190.63;5072844;28;19916;-80
2021/07/26 11:24:40;;;;;;;;;;;;;;;-142.75;56.43;75196.53;5073206;28;20011;-80
2021/07/26 11:27:06;;;;;;;;;;;;;;;-142.75;54.22;75247.69;5072863;28;20385;-79
2021/07/26 11:29:31;;;;;;;;;;;;;;;-142.75;55.39;75292.97;5073694;28;19978;-79
2021/07/26 11:31:57;;;;;;;;;;;;;;;-142.75;55.37;75265.41;5071426;28;19950;-79
2021/07/26 11:34:27;;;;;;;;;;;;;;;-142.75;54.96;75298.84;5043694;28;19921;-80
2021/07/26 11:37:05;;;;;;;;;;;;;;;-142.75;54.57;75287.06;5052512;28;19917;-79
2021/07/26 11:39:49;;;;;;;;;;;;;;;-142.75;53.93;75273.28;5053093;28;19978;-78
2021/07/26 11:42:18;;;;;;;;;;;;;;;-142.75;51.56;75253.59;5052727;28;19917;-78
2021/07/26 11:44:45;;;;;;;;;;;;;;;-142.75;52.18;75249.66;5052660;28;20345;-80
2021/07/26 11:47:11;;;;;;;;;;;;;;;-142.75;52.35;75259.50;5052660;28;20382;-77
2021/07/26 11:49:36;;;;;;;;;;;;;;;-142.75;51.68;75279.19;5087956;22;19931;-80
2021/07/26 11:52:06;;;;;;;;;;;;;;;-142.75;51.77;75251.63;5069762;28;19933;-79
2021/07/26 11:54:31;;;;;;;;;;;;;;;-142.75;52.09;75231.94;5074912;28;20373;-80
2021/07/26 11:57:03;;;;;;;;;;;;;;;-142.75;52.17;75263.44;5085891;28;19970;-79
2021/07/26 11:59:30;;;;;;;;;;;;;;;-142.75;53.40;75289.03;5063229;28;19917;-79
2021/07/26 12:01:57;;;;;;;;;;;;;;;-142.75;53.29;75330.34;5051473;28;19964;-81
2021/07/26 12:04:24;;;;;;;;;;;;;;;-142.75;53.31;75312.63;5059685;28;19948;-79
2021/07/26 12:06:54;;;;;;;;;;;;;;;-142.75;52.56;75291.00;5052816;28;19920;-79
2021/07/26 12:09:19;;;;;;;;;;;;;;;-142.75;50.99;75269.34;5053273;28;19924;-80
2021/07/26 12:11:45;;;;;;;;;;;;;;;-142.75;50.96;75283.13;5056139;28;19916;-80
2021/07/26 12:14:26;;;;;;;;;;;;;;;-142.75;51.73;75308.69;5071226;28;20286;-80
2021/07/26 12:16:55;;;;;;;;;;;;;;;-142.75;51.86;75381.50;5055095;28;19921;-80
2021/07/26 12:19:20;;;;;;;;;;;;;;;-142.75;52.10;75393.31;5065114;28;19916;-79
2021/07/26 12:21:46;;;;;;;;;;;;;;;-142.75;53.18;75409.06;5055089;28;19953;-80
2021/07/26 12:24:11;;;;;;;;;;;;;;;-142.75;52.94;75405.13;5072425;28;20066;-79
2021/07/26 12:26:37;;;;;;;;;;;;;;;-142.75;52.16;75401.19;5061073;28;19920;-79
2021/07/26 12:29:08;;;;;;;;;;;;;;;-142.75;52.76;75381.50;5064701;28;19961;-80
2021/07/26 12:31:35;;;;;;;;;;;;;;;-142.75;52.31;75377.56;5067481;28;19920;-79